createdAt,value
2017-09-13T00:00:51.364Z,85.62
2017-09-13T00:02:53.068Z,86.10
2017-09-13T00:04:54.452Z,85.52
2017-09-13T00:06:55.878Z,85.90
2017-09-13T00:08:57.283Z,85.71
2017-09-13T00:10:58.699Z,85.52
2017-09-13T00:13:00.186Z,86.19
2017-09-13T00:15:01.794Z,86.29
2017-09-13T00:17:03.276Z,86.19
2017-09-13T00:19:04.754Z,86.10
2017-09-13T00:21:06.578Z,86.00
2017-09-13T00:23:07.987Z,85.90
2017-09-13T00:25:09.474Z,86.47
2017-09-13T00:27:10.965Z,86.19
2017-09-13T00:29:12.457Z,85.81
2017-09-13T00:31:13.923Z,85.81
2017-09-13T00:33:15.384Z,85.62
2017-09-13T00:35:16.837Z,85.62
2017-09-13T00:37:18.328Z,86.10
2017-09-13T00:39:19.918Z,86.00
2017-09-13T00:42:02.332Z,85.24
2017-09-13T00:44:03.745Z,85.42
2017-09-13T00:46:05.162Z,85.33
2017-09-13T00:48:06.701Z,85.62
2017-09-13T00:50:08.149Z,85.52
2017-09-13T00:52:09.603Z,85.14
2017-09-13T00:54:11.004Z,84.85
2017-09-13T00:56:12.423Z,84.85
2017-09-13T00:58:13.835Z,85.05
2017-09-13T01:00:15.259Z,84.76
2017-09-13T01:02:16.666Z,84.56
2017-09-13T01:04:18.149Z,84.47
2017-09-13T01:06:19.607Z,84.47
2017-09-13T01:08:21.189Z,84.95
2017-09-13T01:10:22.632Z,84.19
2017-09-13T01:12:24.067Z,84.09
2017-09-13T01:14:25.479Z,83.80
2017-09-13T01:16:26.930Z,82.75
2017-09-13T01:18:28.446Z,83.27
2017-09-13T01:20:29.962Z,83.46
2017-09-13T01:22:31.485Z,83.27
2017-09-13T01:24:32.973Z,83.13
2017-09-13T01:26:34.391Z,82.98
2017-09-13T01:29:16.811Z,83.94
2017-09-13T01:31:18.226Z,83.56
2017-09-13T01:33:19.638Z,84.09
2017-09-13T01:35:21.050Z,84.19
2017-09-13T01:37:22.461Z,84.66
2017-09-13T01:39:24.079Z,84.76
2017-09-13T01:41:25.503Z,84.85
2017-09-13T01:43:26.937Z,85.62
2017-09-13T01:45:28.338Z,86.47
2017-09-13T01:47:29.752Z,87.43
2017-09-13T01:49:31.163Z,88.10
2017-09-13T01:51:32.587Z,89.82
2017-09-13T01:53:34.050Z,90.01
2017-09-13T01:55:35.472Z,89.82
2017-09-13T01:57:36.947Z,90.45
2017-09-13T01:59:38.422Z,92.11
2017-09-13T02:01:39.878Z,91.40
2017-09-13T02:03:41.831Z,91.06
2017-09-13T02:05:43.735Z,91.78
2017-09-13T02:07:45.222Z,91.97
2017-09-13T02:09:46.749Z,92.64
2017-09-13T02:11:48.299Z,92.74
2017-09-13T02:13:49.844Z,92.74
2017-09-13T02:15:51.336Z,92.93
2017-09-13T02:17:52.931Z,94.27
2017-09-13T02:19:54.417Z,93.50
2017-09-13T02:21:56.035Z,93.12
2017-09-13T02:23:57.551Z,94.07
2017-09-13T02:25:59.010Z,93.31
2017-09-13T02:28:00.484Z,94.07
2017-09-13T02:30:02.038Z,94.07
2017-09-13T02:32:03.491Z,95.03
2017-09-13T02:34:04.951Z,94.65
2017-09-13T02:36:06.457Z,94.36
2017-09-13T02:38:07.971Z,94.36
2017-09-13T02:40:09.517Z,94.46
2017-09-13T02:42:10.962Z,94.93
2017-09-13T02:44:12.447Z,95.41
2017-09-13T02:46:13.935Z,95.41
2017-09-13T02:48:15.433Z,96.61
2017-09-13T02:50:16.920Z,97.52
2017-09-13T02:52:18.376Z,96.66
2017-09-13T02:54:19.870Z,96.94
2017-09-13T02:56:21.314Z,97.03
2017-09-13T02:58:23.037Z,98.08
2017-09-13T03:00:24.536Z,98.13
2017-09-13T03:02:26.070Z,97.56
2017-09-13T03:04:27.544Z,98.32
2017-09-13T03:06:28.989Z,98.13
2017-09-13T03:08:30.514Z,98.99
2017-09-13T03:10:32.039Z,98.61
2017-09-13T03:12:33.532Z,98.80
2017-09-13T03:15:14.938Z,99.99
2017-09-13T03:17:16.348Z,99.99
2017-09-13T03:19:58.734Z,99.57
2017-09-13T03:22:00.141Z,99.99
2017-09-13T03:24:01.565Z,99.95
2017-09-13T03:26:03.657Z,99.99
2017-09-13T03:28:05.115Z,99.99
2017-09-13T03:30:47.509Z,99.99
2017-09-13T03:32:49.631Z,99.99
2017-09-13T03:34:51.088Z,99.99
2017-09-13T03:36:52.615Z,99.99
2017-09-13T03:38:54.072Z,99.99
2017-09-13T03:40:55.509Z,99.99
2017-09-13T03:42:57.065Z,99.99
2017-09-13T03:44:58.547Z,99.99
2017-09-13T03:47:00.072Z,99.99
2017-09-13T03:49:01.601Z,99.99
2017-09-13T03:51:44.906Z,99.99
2017-09-13T03:53:46.235Z,99.99
2017-09-13T03:55:47.648Z,99.99
2017-09-13T03:57:49.059Z,99.99
2017-09-13T03:59:50.472Z,99.99
2017-09-13T04:01:51.888Z,99.99
2017-09-13T04:03:53.599Z,99.99
2017-09-13T04:05:55.008Z,99.99
2017-09-13T04:08:38.848Z,99.99
2017-09-13T04:10:40.506Z,99.99
2017-09-13T04:12:41.896Z,99.99
2017-09-13T04:14:43.345Z,99.99
2017-09-13T04:16:44.780Z,99.99
2017-09-13T04:19:27.194Z,99.99
2017-09-13T04:21:29.723Z,99.99
2017-09-13T04:23:31.548Z,99.99
2017-09-13T04:25:33.137Z,99.99
2017-09-13T04:27:34.588Z,99.99
2017-09-13T04:29:36.006Z,99.99
2017-09-13T04:31:37.424Z,99.99
2017-09-13T04:33:38.836Z,99.99
2017-09-13T04:36:21.230Z,99.99
2017-09-13T04:38:22.646Z,99.99
2017-09-13T04:40:24.057Z,99.99
2017-09-13T04:42:25.477Z,99.99
2017-09-13T04:44:26.876Z,99.99
2017-09-13T04:46:28.302Z,99.99
2017-09-13T04:48:29.717Z,99.99
2017-09-13T04:50:31.129Z,99.99
2017-09-13T04:52:32.545Z,99.99
2017-09-13T04:55:14.947Z,99.99
2017-09-13T04:57:16.363Z,99.99
2017-09-13T04:59:17.774Z,99.99
2017-09-13T05:01:19.190Z,99.99
2017-09-13T05:03:20.619Z,99.99
2017-09-13T05:05:22.090Z,99.99
2017-09-13T05:07:23.575Z,99.99
2017-09-13T05:09:25.105Z,99.99
2017-09-13T05:11:26.590Z,99.99
2017-09-13T05:13:28.574Z,99.99
2017-09-13T05:15:30.053Z,99.99
2017-09-13T05:17:31.548Z,99.99
2017-09-13T05:19:33.008Z,99.99
2017-09-13T05:21:34.442Z,99.99
2017-09-13T05:23:35.969Z,99.99
2017-09-13T05:26:18.369Z,99.99
2017-09-13T05:28:19.780Z,99.99
2017-09-13T05:30:21.198Z,99.99
2017-09-13T05:32:22.611Z,99.99
2017-09-13T05:34:24.026Z,99.99
2017-09-13T05:36:25.444Z,99.99
2017-09-13T05:38:26.856Z,99.99
2017-09-13T05:40:28.294Z,99.99
2017-09-13T05:42:29.719Z,99.99
2017-09-13T05:44:31.137Z,99.99
2017-09-13T05:46:32.554Z,99.99
2017-09-13T05:48:34.124Z,99.99
2017-09-13T05:50:35.851Z,99.99
2017-09-13T05:52:37.350Z,99.99
2017-09-13T05:54:38.906Z,99.99
2017-09-13T05:56:40.385Z,99.99
2017-09-13T05:58:41.845Z,99.99
2017-09-13T06:00:43.269Z,99.99
2017-09-13T06:02:44.680Z,99.99
2017-09-13T06:04:46.099Z,99.99
2017-09-13T06:06:47.514Z,99.99
2017-09-13T06:08:48.933Z,99.99
2017-09-13T06:10:50.369Z,99.99
2017-09-13T06:12:51.811Z,99.99
2017-09-13T06:14:53.239Z,99.99
2017-09-13T06:16:54.794Z,99.99
2017-09-13T06:18:56.207Z,99.99
2017-09-13T06:20:57.624Z,99.99
2017-09-13T06:22:59.076Z,99.99
2017-09-13T06:25:00.522Z,99.99
2017-09-13T06:27:01.974Z,99.99
2017-09-13T06:29:45.039Z,99.99
2017-09-13T06:31:46.365Z,99.99
2017-09-13T06:33:47.781Z,99.99
2017-09-13T06:35:49.197Z,99.99
2017-09-13T06:37:50.612Z,99.99
2017-09-13T06:39:52.030Z,99.71
2017-09-13T06:41:53.450Z,99.90
2017-09-13T06:43:54.968Z,99.99
2017-09-13T06:46:37.352Z,99.99
2017-09-13T06:48:38.767Z,99.67
2017-09-13T06:50:40.199Z,98.90
2017-09-13T06:52:41.617Z,98.14
2017-09-13T06:54:43.042Z,98.71
2017-09-13T06:56:44.458Z,98.04
2017-09-13T06:58:45.875Z,98.52
2017-09-13T07:01:28.299Z,97.18
2017-09-13T07:03:29.708Z,98.14
2017-09-13T07:05:31.129Z,97.08
2017-09-13T07:07:32.551Z,99.00
2017-09-13T07:09:33.971Z,98.71
2017-09-13T07:11:35.392Z,98.33
2017-09-13T07:13:36.994Z,97.95
2017-09-13T07:16:19.519Z,98.14
2017-09-13T07:19:01.912Z,97.47
2017-09-13T07:21:03.346Z,96.80
2017-09-13T07:23:04.762Z,96.03
2017-09-13T07:25:06.179Z,96.32
2017-09-13T07:27:07.596Z,95.65
2017-09-13T07:29:09.139Z,97.28
2017-09-13T07:31:10.562Z,96.84
2017-09-13T07:33:12.037Z,97.28
2017-09-13T07:35:13.452Z,98.81
2017-09-13T07:37:14.870Z,99.86
2017-09-13T07:39:16.355Z,99.76
2017-09-13T07:41:18.200Z,98.61
2017-09-13T07:43:19.720Z,97.37
2017-09-13T07:45:21.135Z,98.33
2017-09-13T07:47:22.554Z,98.24
2017-09-13T07:49:23.985Z,99.86
2017-09-13T07:51:25.447Z,99.99
2017-09-13T07:53:26.879Z,99.99
2017-09-13T07:55:28.305Z,99.99
2017-09-13T07:57:29.720Z,99.99
2017-09-13T07:59:31.229Z,99.99
2017-09-13T08:01:32.645Z,99.99
2017-09-13T08:03:34.065Z,99.99
2017-09-13T08:06:17.268Z,99.99
2017-09-13T08:08:18.702Z,99.99
2017-09-13T08:10:20.371Z,99.99
2017-09-13T08:12:21.808Z,99.99
2017-09-13T08:14:23.223Z,99.99
2017-09-13T08:16:24.641Z,99.99
2017-09-13T08:18:26.067Z,99.99
2017-09-13T08:20:27.570Z,99.99
2017-09-13T08:22:29.101Z,98.24
2017-09-13T08:24:30.585Z,94.89
2017-09-13T08:26:32.090Z,94.45
2017-09-13T08:28:33.611Z,92.92
2017-09-13T08:30:35.078Z,93.02
2017-09-13T08:32:36.611Z,89.95
2017-09-13T08:34:38.070Z,91.00
2017-09-13T08:36:39.706Z,90.14
2017-09-13T08:38:41.222Z,89.37
2017-09-13T08:40:42.767Z,87.55
2017-09-13T08:42:44.234Z,89.37
2017-09-13T08:44:45.735Z,87.08
2017-09-13T08:46:47.228Z,86.93
2017-09-13T08:48:48.676Z,87.21
2017-09-13T08:50:50.155Z,86.74
2017-09-13T08:53:32.890Z,87.84
2017-09-13T08:55:34.312Z,85.05
2017-09-13T08:57:35.848Z,83.52
2017-09-13T08:59:37.246Z,84.09
2017-09-13T09:01:38.692Z,82.65
2017-09-13T09:03:40.106Z,82.75
2017-09-13T09:05:41.791Z,85.00
2017-09-13T09:08:23.532Z,78.09
2017-09-13T09:10:24.901Z,78.05
2017-09-13T09:12:26.698Z,77.00
2017-09-13T09:14:28.082Z,76.81
2017-09-13T09:16:29.511Z,77.19
2017-09-13T09:18:30.933Z,79.21
2017-09-13T09:20:32.357Z,79.88
2017-09-13T09:22:33.779Z,76.19
2017-09-13T09:24:35.328Z,76.10
2017-09-13T09:26:36.750Z,75.90
2017-09-13T09:28:38.168Z,75.18
2017-09-13T09:30:39.614Z,76.90
2017-09-13T09:32:41.063Z,76.81
2017-09-13T09:34:42.502Z,75.37
2017-09-13T09:36:43.931Z,72.81
2017-09-13T09:39:26.328Z,72.53
2017-09-13T09:41:27.752Z,73.10
2017-09-13T09:43:29.176Z,73.00
2017-09-13T09:45:30.629Z,72.43
2017-09-13T09:47:32.037Z,71.57
2017-09-13T09:49:33.560Z,73.58
2017-09-13T09:51:35.026Z,73.10
2017-09-13T09:53:36.446Z,72.14
2017-09-13T09:56:19.101Z,73.39
2017-09-13T09:58:20.478Z,74.31
2017-09-13T10:00:21.911Z,78.02
2017-09-13T10:02:23.334Z,78.45
2017-09-13T10:04:24.767Z,81.33
2017-09-13T10:06:26.180Z,83.68
2017-09-13T10:08:27.601Z,82.15
2017-09-13T10:10:29.050Z,81.29
2017-09-13T10:12:30.487Z,79.80
2017-09-13T10:14:31.905Z,80.12
2017-09-13T10:16:33.329Z,77.73
2017-09-13T10:18:34.750Z,74.51
2017-09-13T10:20:36.305Z,74.69
2017-09-13T10:22:37.869Z,75.27
2017-09-13T10:24:39.305Z,74.60
2017-09-13T10:26:40.751Z,74.51
2017-09-13T10:28:42.204Z,74.95
2017-09-13T10:30:43.700Z,75.81
2017-09-13T10:32:45.260Z,78.11
2017-09-13T10:34:46.883Z,81.23
2017-09-13T10:36:48.648Z,82.09
2017-09-13T10:38:50.387Z,83.92
2017-09-13T10:40:51.906Z,85.21
2017-09-13T10:42:53.405Z,82.62
2017-09-13T10:44:54.918Z,78.72
2017-09-13T10:46:56.490Z,77.29
2017-09-13T10:48:58.118Z,77.19
2017-09-13T10:50:59.655Z,76.14
2017-09-13T10:53:01.106Z,73.30
2017-09-13T10:55:02.667Z,75.31
2017-09-13T10:57:04.174Z,73.14
2017-09-13T10:59:46.594Z,71.31
2017-09-13T11:01:48.013Z,72.37
2017-09-13T11:03:49.523Z,72.95
2017-09-13T11:05:51.006Z,71.31
2017-09-13T11:07:52.418Z,69.78
2017-09-13T11:09:53.903Z,67.73
2017-09-13T11:11:55.343Z,66.83
2017-09-13T11:13:56.770Z,71.44
2017-09-13T11:15:58.208Z,71.44
2017-09-13T11:17:59.629Z,71.11
2017-09-13T11:20:01.054Z,71.82
2017-09-13T11:22:02.608Z,68.37
2017-09-13T11:24:04.148Z,67.69
2017-09-13T11:26:05.616Z,68.40
2017-09-13T11:28:07.093Z,68.21
2017-09-13T11:30:08.531Z,67.63
2017-09-13T11:32:09.955Z,67.25
2017-09-13T11:34:11.383Z,66.33
2017-09-13T11:36:12.804Z,64.02
2017-09-13T11:38:14.221Z,64.63
2017-09-13T11:40:15.711Z,64.92
2017-09-13T11:42:17.134Z,64.72
2017-09-13T11:44:18.563Z,64.34
2017-09-13T11:46:19.981Z,65.05
2017-09-13T11:48:21.461Z,62.35
2017-09-13T11:50:22.983Z,63.76
2017-09-13T11:52:24.579Z,63.48
2017-09-13T11:54:26.062Z,61.55
2017-09-13T11:56:27.550Z,61.46
2017-09-13T11:58:28.999Z,60.69
2017-09-13T12:00:30.453Z,60.66
2017-09-13T12:02:31.942Z,59.70
2017-09-13T12:04:33.448Z,61.59
2017-09-13T12:06:34.900Z,62.84
2017-09-13T12:08:36.387Z,63.12
2017-09-13T12:10:37.918Z,63.12
2017-09-13T12:12:39.583Z,64.56
2017-09-13T12:14:41.134Z,66.29
2017-09-13T12:16:42.642Z,68.88
2017-09-13T12:18:44.194Z,68.88
2017-09-13T12:20:45.704Z,67.16
2017-09-13T12:22:47.183Z,66.06
2017-09-13T12:24:48.748Z,67.32
2017-09-13T12:26:50.227Z,67.60
2017-09-13T12:28:51.719Z,67.41
2017-09-13T12:30:53.141Z,67.60
2017-09-13T12:32:54.569Z,66.99
2017-09-13T12:34:55.992Z,68.62
2017-09-13T12:36:57.409Z,70.19
2017-09-13T12:38:58.832Z,69.52
2017-09-13T12:41:00.272Z,68.46
2017-09-13T12:43:01.704Z,68.46
2017-09-13T12:45:03.206Z,66.83
2017-09-13T12:47:04.632Z,66.26
2017-09-13T12:49:48.150Z,62.71
2017-09-13T12:51:49.539Z,63.48
2017-09-13T12:53:50.968Z,64.37
2017-09-13T12:55:52.394Z,63.35
2017-09-13T12:57:53.907Z,59.51
2017-09-13T12:59:55.426Z,59.12
2017-09-13T13:01:56.946Z,58.17
2017-09-13T13:03:58.373Z,57.21
2017-09-13T13:05:59.793Z,57.95
2017-09-13T13:08:01.216Z,59.29
2017-09-13T13:10:02.645Z,59.32
2017-09-13T13:12:04.116Z,59.51
2017-09-13T13:14:05.708Z,59.64
2017-09-13T13:16:07.247Z,59.34
2017-09-13T13:18:08.761Z,57.90
2017-09-13T13:20:10.399Z,57.97
2017-09-13T13:22:11.832Z,59.12
2017-09-13T13:24:13.372Z,59.09
2017-09-13T13:26:14.931Z,59.86
2017-09-13T13:28:16.428Z,60.79
2017-09-13T13:30:17.932Z,61.08
2017-09-13T13:32:19.426Z,61.21
2017-09-13T13:34:20.898Z,61.52
2017-09-13T13:36:22.380Z,61.72
2017-09-13T13:38:23.830Z,61.40
2017-09-13T13:40:25.656Z,61.49
2017-09-13T13:42:27.173Z,62.07
2017-09-13T13:44:28.650Z,61.98
2017-09-13T13:46:30.155Z,61.69
2017-09-13T13:48:31.677Z,62.07
2017-09-13T13:50:33.154Z,62.74
2017-09-13T13:52:34.679Z,61.40
2017-09-13T13:54:36.216Z,61.69
2017-09-13T13:56:37.703Z,62.45
2017-09-13T13:58:39.184Z,61.59
2017-09-13T14:00:40.650Z,60.47
2017-09-13T14:02:42.479Z,61.33
2017-09-13T14:04:44.344Z,59.83
2017-09-13T14:06:45.892Z,59.92
2017-09-13T14:08:47.393Z,59.16
2017-09-13T14:10:48.879Z,57.23
2017-09-13T14:12:50.544Z,58.39
2017-09-13T14:14:51.992Z,57.62
2017-09-13T14:16:53.550Z,55.60
2017-09-13T14:18:55.079Z,56.08
2017-09-13T14:20:56.595Z,56.95
2017-09-13T14:22:58.080Z,58.07
2017-09-13T14:24:59.536Z,55.69
2017-09-13T14:27:00.978Z,56.27
2017-09-13T14:29:02.403Z,56.76
2017-09-13T14:31:03.828Z,58.07
2017-09-13T14:33:05.251Z,58.45
2017-09-13T14:35:06.683Z,59.58
2017-09-13T14:37:08.112Z,59.86
2017-09-13T14:39:09.530Z,59.61
2017-09-13T14:41:10.966Z,59.51
2017-09-13T14:43:12.414Z,59.64
2017-09-13T14:45:13.847Z,58.10
2017-09-13T14:47:15.272Z,55.69
2017-09-13T14:49:16.700Z,54.83
2017-09-13T14:51:18.244Z,55.86
2017-09-13T14:53:19.976Z,57.21
2017-09-13T14:55:21.469Z,55.45
2017-09-13T14:57:22.894Z,56.41
2017-09-13T14:59:24.415Z,56.41
2017-09-13T15:02:06.845Z,57.18
2017-09-13T15:04:08.253Z,58.52
2017-09-13T15:06:09.784Z,57.65
2017-09-13T15:08:11.205Z,57.18
2017-09-13T15:10:12.626Z,58.45
2017-09-13T15:12:14.048Z,58.55
2017-09-13T15:14:15.472Z,57.59
2017-09-13T15:16:16.892Z,57.01
2017-09-13T15:18:18.315Z,57.11
2017-09-13T15:20:19.740Z,57.68
2017-09-13T15:22:21.173Z,58.07
2017-09-13T15:24:22.607Z,58.45
2017-09-13T15:26:24.033Z,57.21
2017-09-13T15:28:25.455Z,56.89
2017-09-13T15:30:26.874Z,58.14
2017-09-13T15:32:28.314Z,59.09
2017-09-13T15:34:29.745Z,59.58
2017-09-13T15:36:31.197Z,58.71
2017-09-13T15:38:32.686Z,59.29
2017-09-13T15:40:34.213Z,57.65
2017-09-13T15:42:35.641Z,56.89
2017-09-13T15:44:37.153Z,56.51
2017-09-13T15:46:38.616Z,57.18
2017-09-13T15:48:40.122Z,57.28
2017-09-13T15:50:41.548Z,58.52
2017-09-13T15:52:43.047Z,58.91
2017-09-13T15:54:44.654Z,58.52
2017-09-13T15:56:46.143Z,58.52
2017-09-13T15:58:47.627Z,58.71
2017-09-13T16:00:49.090Z,59.06
2017-09-13T16:02:50.546Z,59.38
2017-09-13T16:04:52.175Z,58.62
2017-09-13T16:06:53.705Z,59.29
2017-09-13T16:08:55.185Z,59.09
2017-09-13T16:10:56.665Z,59.38
2017-09-13T16:12:58.128Z,60.15
2017-09-13T16:14:59.606Z,59.96
2017-09-13T16:17:01.105Z,59.55
2017-09-13T16:19:02.530Z,59.74
2017-09-13T16:21:04.030Z,60.70
2017-09-13T16:23:05.489Z,60.79
2017-09-13T16:25:07.011Z,60.79
2017-09-13T16:27:08.550Z,60.31
2017-09-13T16:29:10.079Z,59.36
2017-09-13T16:31:11.606Z,60.03
2017-09-13T16:33:13.128Z,59.64
2017-09-13T16:35:14.579Z,58.78
2017-09-13T16:37:16.123Z,59.26
2017-09-13T16:39:17.619Z,59.06
2017-09-13T16:41:19.124Z,59.26
2017-09-13T16:43:20.607Z,59.26
2017-09-13T16:45:22.085Z,59.55
2017-09-13T16:47:23.607Z,59.16
2017-09-13T16:49:25.135Z,59.16
2017-09-13T16:51:26.635Z,60.31
2017-09-13T16:53:28.175Z,59.64
2017-09-13T16:55:29.676Z,60.22
2017-09-13T16:57:31.156Z,60.50
2017-09-13T16:59:32.677Z,59.83
2017-09-13T17:01:34.163Z,60.86
2017-09-13T17:03:35.698Z,60.96
2017-09-13T17:05:37.160Z,61.72
2017-09-13T17:07:38.667Z,61.27
2017-09-13T17:09:40.182Z,60.67
2017-09-13T17:11:41.650Z,61.63
2017-09-13T17:13:43.145Z,62.10
2017-09-13T17:15:44.605Z,62.49
2017-09-13T17:17:46.075Z,63.16
2017-09-13T17:19:47.550Z,63.35
2017-09-13T17:21:49.045Z,63.54
2017-09-13T17:24:31.458Z,63.92
2017-09-13T17:26:32.874Z,64.37
2017-09-13T17:28:34.296Z,64.66
2017-09-13T17:30:35.720Z,64.76
2017-09-13T17:32:37.229Z,65.91
2017-09-13T17:34:38.689Z,64.56
2017-09-13T17:36:40.147Z,65.33
2017-09-13T17:38:41.567Z,65.05
2017-09-13T17:40:42.985Z,65.81
2017-09-13T17:42:44.399Z,66.48
2017-09-13T17:44:45.819Z,67.63
2017-09-13T17:46:47.238Z,68.59
2017-09-13T17:48:48.650Z,69.32
2017-09-13T17:50:50.083Z,68.17
2017-09-13T17:52:51.510Z,69.32
2017-09-13T17:54:52.934Z,69.99
2017-09-13T17:56:54.381Z,69.89
2017-09-13T17:58:55.797Z,69.23
2017-09-13T18:00:57.215Z,68.84
2017-09-13T18:02:58.630Z,69.03
2017-09-13T18:05:00.046Z,69.09
2017-09-13T18:07:01.462Z,69.32
2017-09-13T18:09:02.886Z,69.03
2017-09-13T18:11:45.296Z,69.32
2017-09-13T18:13:46.705Z,68.71
2017-09-13T18:15:48.120Z,69.57
2017-09-13T18:17:49.538Z,69.95
2017-09-13T18:19:51.030Z,70.62
2017-09-13T18:21:52.448Z,70.91
2017-09-13T18:23:54.010Z,70.43
2017-09-13T18:25:55.385Z,70.91
2017-09-13T18:27:56.835Z,70.62
2017-09-13T18:29:58.250Z,71.01
2017-09-13T18:31:59.666Z,71.58
2017-09-13T18:34:01.082Z,71.77
2017-09-13T18:36:02.501Z,72.41
2017-09-13T18:38:03.918Z,72.88
2017-09-13T18:40:05.333Z,73.55
2017-09-13T18:42:06.757Z,73.27
2017-09-13T18:44:08.175Z,72.98
2017-09-13T18:46:09.585Z,73.75
2017-09-13T18:48:11.004Z,73.94
2017-09-13T18:50:12.414Z,73.75
2017-09-13T18:52:13.835Z,73.75
2017-09-13T18:54:15.427Z,73.75
2017-09-13T18:56:16.915Z,74.04
2017-09-13T18:58:18.421Z,74.41
2017-09-13T19:00:19.836Z,73.75
2017-09-13T19:02:21.346Z,73.75
2017-09-13T19:04:22.849Z,74.04
2017-09-13T19:06:24.314Z,74.61
2017-09-13T19:08:25.730Z,75.27
2017-09-13T19:10:27.172Z,75.85
2017-09-13T19:12:28.628Z,75.85
2017-09-13T19:14:30.087Z,76.04
2017-09-13T19:16:31.544Z,77.53
2017-09-13T19:18:33.011Z,77.25
2017-09-13T19:20:34.565Z,76.57
2017-09-13T19:22:36.041Z,76.67
2017-09-13T19:24:37.918Z,76.96
2017-09-13T19:26:39.395Z,77.15
2017-09-13T19:28:40.887Z,78.01
2017-09-13T19:30:42.371Z,78.39
2017-09-13T19:32:43.851Z,78.39
2017-09-13T19:34:45.347Z,78.49
2017-09-13T19:36:46.886Z,78.68
2017-09-13T19:38:48.368Z,78.49
2017-09-13T19:40:49.871Z,78.97
2017-09-13T19:42:51.407Z,79.25
2017-09-13T19:44:52.936Z,79.44
2017-09-13T19:47:35.330Z,78.87
2017-09-13T19:49:37.237Z,79.54
2017-09-13T19:51:39.216Z,80.02
2017-09-13T19:53:40.573Z,80.69
2017-09-13T19:55:42.000Z,81.07
2017-09-13T19:57:43.438Z,82.41
2017-09-13T19:59:44.852Z,82.89
2017-09-13T20:01:46.266Z,82.41
2017-09-13T20:03:47.685Z,82.60
2017-09-13T20:05:49.097Z,83.46
2017-09-13T20:07:50.510Z,83.37
2017-09-13T20:09:51.922Z,83.65
2017-09-13T20:11:53.341Z,83.56
2017-09-13T20:13:54.780Z,84.03
2017-09-13T20:15:56.213Z,84.42
2017-09-13T20:17:57.624Z,84.70
2017-09-13T20:19:59.049Z,84.99
2017-09-13T20:22:00.469Z,85.52
2017-09-13T20:24:01.897Z,86.19
2017-09-13T20:26:03.318Z,86.47
2017-09-13T20:28:04.734Z,86.67
2017-09-13T20:30:06.154Z,86.67
2017-09-13T20:32:07.715Z,86.57
2017-09-13T20:34:09.136Z,86.61
2017-09-13T20:36:10.545Z,87.24
2017-09-13T20:38:11.973Z,86.86
2017-09-13T20:40:13.398Z,87.15
2017-09-13T20:42:14.810Z,86.76
2017-09-13T20:44:16.251Z,87.24
2017-09-13T20:46:17.756Z,86.96
2017-09-13T20:48:19.303Z,86.96
2017-09-13T20:50:20.732Z,86.96
2017-09-13T20:52:22.143Z,86.57
2017-09-13T20:54:23.561Z,86.86
2017-09-13T20:56:24.972Z,87.15
2017-09-13T20:58:26.413Z,86.96
2017-09-13T21:00:27.827Z,86.29
2017-09-13T21:02:29.258Z,86.00
2017-09-13T21:04:30.669Z,86.29
2017-09-13T21:06:32.078Z,86.19
2017-09-13T21:08:33.505Z,86.10
2017-09-13T21:10:34.921Z,85.71
2017-09-13T21:12:36.339Z,85.52
2017-09-13T21:14:37.791Z,85.81
2017-09-13T21:16:39.209Z,85.71
2017-09-13T21:18:40.613Z,85.62
2017-09-13T21:21:23.050Z,86.10
2017-09-13T21:23:24.464Z,86.00
2017-09-13T21:25:25.881Z,85.90
2017-09-13T21:27:27.447Z,85.81
2017-09-13T21:29:29.043Z,85.14
2017-09-13T21:31:30.415Z,85.62
2017-09-13T21:33:31.833Z,85.62
2017-09-13T21:35:33.244Z,86.38
2017-09-13T21:38:16.314Z,86.57
2017-09-13T21:40:17.694Z,86.47
2017-09-13T21:42:19.109Z,87.53
2017-09-13T21:44:20.522Z,87.43
2017-09-13T21:46:21.930Z,88.20
2017-09-13T21:48:24.233Z,88.48
2017-09-13T21:50:25.673Z,88.87
2017-09-13T21:52:27.086Z,89.73
2017-09-13T21:54:28.505Z,90.01
2017-09-13T21:56:29.941Z,89.63
2017-09-13T21:58:31.363Z,90.25
2017-09-13T22:00:32.964Z,91.78
2017-09-13T22:02:34.412Z,92.16
2017-09-13T22:04:35.910Z,92.45
2017-09-13T22:06:37.412Z,93.12
2017-09-13T22:08:38.863Z,93.31
2017-09-13T22:10:40.427Z,93.60
2017-09-13T22:12:41.984Z,93.41
2017-09-13T22:14:43.403Z,93.31
2017-09-13T22:16:44.817Z,93.31
2017-09-13T22:18:46.250Z,93.21
2017-09-13T22:20:47.790Z,93.21
2017-09-13T22:22:49.628Z,93.12
2017-09-13T22:25:32.030Z,93.41
2017-09-13T22:27:33.436Z,93.31
2017-09-13T22:29:34.860Z,92.93
2017-09-13T22:31:36.278Z,93.41
2017-09-13T22:33:37.687Z,92.74
2017-09-13T22:35:39.256Z,93.70
2017-09-13T22:37:40.925Z,93.98
2017-09-13T22:39:42.440Z,93.79
2017-09-13T22:41:43.844Z,95.03
2017-09-13T22:43:45.257Z,94.84
2017-09-13T22:45:46.696Z,95.32
2017-09-13T22:47:48.108Z,94.55
2017-09-13T22:49:49.543Z,95.03
2017-09-13T22:51:50.960Z,95.03
2017-09-13T22:53:52.454Z,94.65
2017-09-13T22:56:34.729Z,94.36
2017-09-13T22:58:36.270Z,94.84
2017-09-13T23:00:37.677Z,95.32
2017-09-13T23:02:39.078Z,94.65
2017-09-13T23:04:40.491Z,94.93
2017-09-13T23:06:41.904Z,95.22
2017-09-13T23:08:43.368Z,95.22
2017-09-13T23:10:44.852Z,94.03
2017-09-13T23:13:27.244Z,94.79
2017-09-13T23:15:28.655Z,94.74
2017-09-13T23:17:30.282Z,94.84
2017-09-13T23:19:31.697Z,94.84
2017-09-13T23:21:33.108Z,94.74
2017-09-13T23:23:34.538Z,95.03
2017-09-13T23:25:35.960Z,95.65
2017-09-13T23:28:18.360Z,95.17
2017-09-13T23:30:19.772Z,95.36
2017-09-13T23:32:21.338Z,95.75
2017-09-13T23:34:22.763Z,95.46
2017-09-13T23:36:24.171Z,94.70
2017-09-13T23:38:25.585Z,95.27
2017-09-13T23:40:27.011Z,94.89
2017-09-13T23:42:28.424Z,95.84
2017-09-13T23:44:29.835Z,96.13
2017-09-13T23:46:31.248Z,95.46
2017-09-13T23:48:32.658Z,95.94
2017-09-13T23:50:34.095Z,95.36
2017-09-13T23:52:35.517Z,94.98
2017-09-13T23:54:36.935Z,94.98
2017-09-13T23:56:38.347Z,95.08
2017-09-13T23:58:39.762Z,95.65
